sensor_id;sensor_type;location;lat;lon;timestamp;P1;durP1;ratioP1;P2;durP2;ratioP2
67074;SDS011;53990;50.334;18.640;2023-02-26T00:00:46;23.60;;;10.90;;
67074;SDS011;53990;50.334;18.640;2023-02-26T00:04:10;42.90;;;18.50;;
67074;SDS011;53990;50.334;18.640;2023-02-26T00:07:36;18.20;;;8.90;;
67074;SDS011;53990;50.334;18.640;2023-02-26T00:10:37;20.00;;;9.30;;
67074;SDS011;53990;50.334;18.640;2023-02-26T00:13:14;17.90;;;8.10;;
67074;SDS011;53990;50.334;18.640;2023-02-26T00:20:04;18.20;;;8.60;;
67074;SDS011;53990;50.334;18.640;2023-02-26T00:23:03;13.50;;;7.70;;
67074;SDS011;53990;50.334;18.640;2023-02-26T00:28:21;17.30;;;8.30;;
67074;SDS011;53990;50.334;18.640;2023-02-26T00:40:44;14.10;;;7.20;;
67074;SDS011;53990;50.334;18.640;2023-02-26T00:43:43;15.90;;;7.30;;
67074;SDS011;53990;50.334;18.640;2023-02-26T00:50:01;17.80;;;7.60;;
67074;SDS011;53990;50.334;18.640;2023-02-26T00:53:02;13.90;;;6.50;;
67074;SDS011;53990;50.334;18.640;2023-02-26T00:56:28;14.00;;;6.60;;
67074;SDS011;53990;50.334;18.640;2023-02-26T00:59:48;14.10;;;7.20;;
67074;SDS011;53990;50.334;18.640;2023-02-26T01:03:07;18.00;;;8.00;;
67074;SDS011;53990;50.334;18.640;2023-02-26T01:06:37;15.70;;;7.90;;
67074;SDS011;53990;50.334;18.640;2023-02-26T01:09:45;14.50;;;6.60;;
67074;SDS011;53990;50.334;18.640;2023-02-26T01:13:09;16.50;;;7.80;;
67074;SDS011;53990;50.334;18.640;2023-02-26T01:16:11;15.80;;;7.70;;
67074;SDS011;53990;50.334;18.640;2023-02-26T01:22:21;11.20;;;6.50;;
67074;SDS011;53990;50.334;18.640;2023-02-26T01:28:43;15.90;;;7.90;;
67074;SDS011;53990;50.334;18.640;2023-02-26T01:36:55;10.60;;;7.20;;
67074;SDS011;53990;50.334;18.640;2023-02-26T01:40:48;10.80;;;6.80;;
67074;SDS011;53990;50.334;18.640;2023-02-26T01:45:49;18.20;;;8.80;;
67074;SDS011;53990;50.334;18.640;2023-02-26T01:49:23;12.70;;;8.10;;
67074;SDS011;53990;50.334;18.640;2023-02-26T01:53:18;15.70;;;8.50;;
67074;SDS011;53990;50.334;18.640;2023-02-26T01:57:18;10.80;;;6.80;;
67074;SDS011;53990;50.334;18.640;2023-02-26T02:01:03;10.30;;;7.30;;
67074;SDS011;53990;50.334;18.640;2023-02-26T02:04:44;10.40;;;7.20;;
67074;SDS011;53990;50.334;18.640;2023-02-26T02:08:36;12.00;;;7.70;;
67074;SDS011;53990;50.334;18.640;2023-02-26T02:32:39;12.20;;;7.00;;
67074;SDS011;53990;50.334;18.640;2023-02-26T02:36:26;11.30;;;6.60;;
67074;SDS011;53990;50.334;18.640;2023-02-26T02:40:07;9.50;;;6.60;;
67074;SDS011;53990;50.334;18.640;2023-02-26T02:43:42;11.10;;;7.40;;
67074;SDS011;53990;50.334;18.640;2023-02-26T02:47:08;8.90;;;6.70;;
67074;SDS011;53990;50.334;18.640;2023-02-26T02:51:01;11.40;;;6.80;;
67074;SDS011;53990;50.334;18.640;2023-02-26T02:58:38;10.60;;;6.70;;
67074;SDS011;53990;50.334;18.640;2023-02-26T03:03:31;12.00;;;6.50;;
67074;SDS011;53990;50.334;18.640;2023-02-26T03:07:05;11.10;;;6.70;;
67074;SDS011;53990;50.334;18.640;2023-02-26T03:10:32;9.70;;;6.60;;
67074;SDS011;53990;50.334;18.640;2023-02-26T03:14:50;11.10;;;7.20;;
67074;SDS011;53990;50.334;18.640;2023-02-26T03:28:56;11.90;;;8.00;;
67074;SDS011;53990;50.334;18.640;2023-02-26T03:31:34;12.00;;;7.70;;
67074;SDS011;53990;50.334;18.640;2023-02-26T03:36:45;12.40;;;7.80;;
67074;SDS011;53990;50.334;18.640;2023-02-26T03:39:36;15.70;;;9.70;;
67074;SDS011;53990;50.334;18.640;2023-02-26T03:42:15;10.80;;;7.20;;
67074;SDS011;53990;50.334;18.640;2023-02-26T03:45:09;10.60;;;6.90;;
67074;SDS011;53990;50.334;18.640;2023-02-26T03:47:40;14.80;;;7.60;;
67074;SDS011;53990;50.334;18.640;2023-02-26T03:50:17;11.50;;;7.00;;
67074;SDS011;53990;50.334;18.640;2023-02-26T03:52:47;10.50;;;6.80;;
67074;SDS011;53990;50.334;18.640;2023-02-26T03:57:46;9.90;;;6.30;;
67074;SDS011;53990;50.334;18.640;2023-02-26T04:00:16;12.80;;;8.30;;
67074;SDS011;53990;50.334;18.640;2023-02-26T04:02:50;14.30;;;7.80;;
67074;SDS011;53990;50.334;18.640;2023-02-26T04:05:24;10.70;;;6.70;;
67074;SDS011;53990;50.334;18.640;2023-02-26T04:07:53;13.40;;;7.80;;
67074;SDS011;53990;50.334;18.640;2023-02-26T04:10:26;13.00;;;7.40;;
67074;SDS011;53990;50.334;18.640;2023-02-26T04:12:59;14.70;;;7.50;;
67074;SDS011;53990;50.334;18.640;2023-02-26T04:15:26;12.30;;;7.50;;
67074;SDS011;53990;50.334;18.640;2023-02-26T04:17:59;15.00;;;7.20;;
67074;SDS011;53990;50.334;18.640;2023-02-26T04:20:27;13.60;;;6.90;;
67074;SDS011;53990;50.334;18.640;2023-02-26T04:22:54;11.80;;;7.20;;
67074;SDS011;53990;50.334;18.640;2023-02-26T04:25:21;12.50;;;7.60;;
67074;SDS011;53990;50.334;18.640;2023-02-26T04:27:49;12.90;;;7.70;;
67074;SDS011;53990;50.334;18.640;2023-02-26T04:30:16;13.70;;;7.30;;
67074;SDS011;53990;50.334;18.640;2023-02-26T04:32:44;11.90;;;7.20;;
67074;SDS011;53990;50.334;18.640;2023-02-26T04:35:11;13.10;;;6.20;;
67074;SDS011;53990;50.334;18.640;2023-02-26T04:37:38;13.80;;;7.40;;
67074;SDS011;53990;50.334;18.640;2023-02-26T04:40:06;13.40;;;8.40;;
67074;SDS011;53990;50.334;18.640;2023-02-26T04:42:33;11.30;;;6.60;;
67074;SDS011;53990;50.334;18.640;2023-02-26T04:45:01;15.20;;;7.70;;
67074;SDS011;53990;50.334;18.640;2023-02-26T04:47:29;14.40;;;7.20;;
67074;SDS011;53990;50.334;18.640;2023-02-26T04:49:56;15.50;;;7.90;;
67074;SDS011;53990;50.334;18.640;2023-02-26T04:52:23;11.70;;;6.80;;
67074;SDS011;53990;50.334;18.640;2023-02-26T04:54:51;11.50;;;6.00;;
67074;SDS011;53990;50.334;18.640;2023-02-26T04:57:18;10.40;;;6.40;;
67074;SDS011;53990;50.334;18.640;2023-02-26T04:59:45;9.60;;;6.50;;
67074;SDS011;53990;50.334;18.640;2023-02-26T05:02:13;9.90;;;5.50;;
67074;SDS011;53990;50.334;18.640;2023-02-26T05:04:41;12.50;;;6.90;;
67074;SDS011;53990;50.334;18.640;2023-02-26T05:07:08;18.50;;;9.80;;
67074;SDS011;53990;50.334;18.640;2023-02-26T05:09:35;16.90;;;9.50;;
67074;SDS011;53990;50.334;18.640;2023-02-26T05:12:03;13.90;;;8.40;;
67074;SDS011;53990;50.334;18.640;2023-02-26T05:14:30;14.40;;;7.90;;
67074;SDS011;53990;50.334;18.640;2023-02-26T05:16:57;13.10;;;7.40;;
67074;SDS011;53990;50.334;18.640;2023-02-26T05:19:25;17.00;;;9.70;;
67074;SDS011;53990;50.334;18.640;2023-02-26T05:21:52;17.10;;;8.60;;
67074;SDS011;53990;50.334;18.640;2023-02-26T05:24:19;12.70;;;7.10;;
67074;SDS011;53990;50.334;18.640;2023-02-26T05:26:47;13.10;;;7.90;;
67074;SDS011;53990;50.334;18.640;2023-02-26T05:29:14;12.10;;;7.60;;
67074;SDS011;53990;50.334;18.640;2023-02-26T05:31:41;12.00;;;7.30;;
67074;SDS011;53990;50.334;18.640;2023-02-26T05:34:09;10.40;;;6.80;;
67074;SDS011;53990;50.334;18.640;2023-02-26T05:36:36;14.40;;;8.00;;
67074;SDS011;53990;50.334;18.640;2023-02-26T05:39:04;11.80;;;7.90;;
67074;SDS011;53990;50.334;18.640;2023-02-26T05:41:31;14.30;;;7.90;;
67074;SDS011;53990;50.334;18.640;2023-02-26T05:43:58;12.50;;;7.60;;
67074;SDS011;53990;50.334;18.640;2023-02-26T05:46:25;20.70;;;9.70;;
67074;SDS011;53990;50.334;18.640;2023-02-26T05:48:53;13.70;;;7.90;;
67074;SDS011;53990;50.334;18.640;2023-02-26T05:51:22;15.90;;;8.40;;
67074;SDS011;53990;50.334;18.640;2023-02-26T05:53:50;15.20;;;9.00;;
67074;SDS011;53990;50.334;18.640;2023-02-26T05:56:17;16.60;;;9.10;;
67074;SDS011;53990;50.334;18.640;2023-02-26T05:58:44;16.70;;;9.30;;
67074;SDS011;53990;50.334;18.640;2023-02-26T06:01:12;13.90;;;8.70;;
67074;SDS011;53990;50.334;18.640;2023-02-26T06:03:40;17.60;;;10.00;;
67074;SDS011;53990;50.334;18.640;2023-02-26T06:06:11;16.60;;;11.40;;
67074;SDS011;53990;50.334;18.640;2023-02-26T06:08:40;18.50;;;10.60;;
67074;SDS011;53990;50.334;18.640;2023-02-26T06:11:09;14.40;;;8.90;;
67074;SDS011;53990;50.334;18.640;2023-02-26T06:13:37;13.20;;;9.10;;
67074;SDS011;53990;50.334;18.640;2023-02-26T06:16:12;12.80;;;7.50;;
67074;SDS011;53990;50.334;18.640;2023-02-26T06:18:42;12.70;;;8.10;;
67074;SDS011;53990;50.334;18.640;2023-02-26T06:21:10;15.20;;;8.30;;
67074;SDS011;53990;50.334;18.640;2023-02-26T06:23:46;19.50;;;10.70;;
67074;SDS011;53990;50.334;18.640;2023-02-26T06:26:13;14.80;;;8.90;;
67074;SDS011;53990;50.334;18.640;2023-02-26T06:28:40;12.40;;;8.20;;
67074;SDS011;53990;50.334;18.640;2023-02-26T06:31:08;13.30;;;8.00;;
67074;SDS011;53990;50.334;18.640;2023-02-26T06:33:36;13.30;;;8.40;;
67074;SDS011;53990;50.334;18.640;2023-02-26T06:36:03;13.30;;;7.90;;
67074;SDS011;53990;50.334;18.640;2023-02-26T06:38:31;12.50;;;8.10;;
67074;SDS011;53990;50.334;18.640;2023-02-26T06:40:58;10.40;;;7.90;;
67074;SDS011;53990;50.334;18.640;2023-02-26T06:43:25;12.40;;;8.60;;
67074;SDS011;53990;50.334;18.640;2023-02-26T06:45:56;16.60;;;9.60;;
67074;SDS011;53990;50.334;18.640;2023-02-26T06:48:27;13.10;;;9.10;;
67074;SDS011;53990;50.334;18.640;2023-02-26T06:50:54;12.20;;;8.50;;
67074;SDS011;53990;50.334;18.640;2023-02-26T06:53:22;12.30;;;8.10;;
67074;SDS011;53990;50.334;18.640;2023-02-26T06:55:51;14.70;;;9.10;;
67074;SDS011;53990;50.334;18.640;2023-02-26T06:58:19;13.10;;;8.60;;
67074;SDS011;53990;50.334;18.640;2023-02-26T07:00:46;14.60;;;9.60;;
67074;SDS011;53990;50.334;18.640;2023-02-26T07:03:15;16.40;;;8.90;;
67074;SDS011;53990;50.334;18.640;2023-02-26T07:05:44;15.00;;;9.80;;
67074;SDS011;53990;50.334;18.640;2023-02-26T07:08:13;13.10;;;9.00;;
67074;SDS011;53990;50.334;18.640;2023-02-26T07:10:42;17.50;;;10.30;;
67074;SDS011;53990;50.334;18.640;2023-02-26T07:13:09;17.70;;;10.60;;
67074;SDS011;53990;50.334;18.640;2023-02-26T07:15:39;19.10;;;10.90;;
67074;SDS011;53990;50.334;18.640;2023-02-26T07:18:06;17.80;;;10.90;;
67074;SDS011;53990;50.334;18.640;2023-02-26T07:20:34;20.10;;;12.80;;
67074;SDS011;53990;50.334;18.640;2023-02-26T07:23:01;25.60;;;14.20;;
67074;SDS011;53990;50.334;18.640;2023-02-26T07:25:29;24.40;;;15.60;;
67074;SDS011;53990;50.334;18.640;2023-02-26T07:27:56;20.10;;;12.60;;
67074;SDS011;53990;50.334;18.640;2023-02-26T07:30:26;18.20;;;12.90;;
67074;SDS011;53990;50.334;18.640;2023-02-26T07:32:53;18.10;;;13.20;;
67074;SDS011;53990;50.334;18.640;2023-02-26T07:35:21;16.60;;;12.00;;
67074;SDS011;53990;50.334;18.640;2023-02-26T07:37:48;46.40;;;27.20;;
67074;SDS011;53990;50.334;18.640;2023-02-26T07:40:16;38.10;;;22.30;;
67074;SDS011;53990;50.334;18.640;2023-02-26T07:42:43;69.40;;;37.10;;
67074;SDS011;53990;50.334;18.640;2023-02-26T07:45:10;50.90;;;25.60;;
67074;SDS011;53990;50.334;18.640;2023-02-26T07:47:38;38.00;;;18.80;;
67074;SDS011;53990;50.334;18.640;2023-02-26T07:50:05;41.00;;;21.90;;
67074;SDS011;53990;50.334;18.640;2023-02-26T07:52:33;30.50;;;17.20;;
67074;SDS011;53990;50.334;18.640;2023-02-26T07:55:00;31.90;;;17.80;;
67074;SDS011;53990;50.334;18.640;2023-02-26T07:57:27;34.40;;;19.70;;
67074;SDS011;53990;50.334;18.640;2023-02-26T07:59:55;16.00;;;8.50;;
67074;SDS011;53990;50.334;18.640;2023-02-26T08:02:22;13.40;;;7.60;;
67074;SDS011;53990;50.334;18.640;2023-02-26T08:04:49;12.20;;;6.80;;
67074;SDS011;53990;50.334;18.640;2023-02-26T08:07:18;17.70;;;9.50;;
67074;SDS011;53990;50.334;18.640;2023-02-26T08:09:45;16.70;;;10.70;;
67074;SDS011;53990;50.334;18.640;2023-02-26T08:12:13;17.60;;;10.40;;
67074;SDS011;53990;50.334;18.640;2023-02-26T08:14:40;24.20;;;13.90;;
67074;SDS011;53990;50.334;18.640;2023-02-26T08:17:08;34.90;;;17.40;;
67074;SDS011;53990;50.334;18.640;2023-02-26T08:19:36;20.30;;;13.50;;
67074;SDS011;53990;50.334;18.640;2023-02-26T08:22:03;26.20;;;14.60;;
67074;SDS011;53990;50.334;18.640;2023-02-26T08:24:31;23.00;;;12.40;;
67074;SDS011;53990;50.334;18.640;2023-02-26T08:26:58;20.70;;;11.20;;
67074;SDS011;53990;50.334;18.640;2023-02-26T08:29:26;11.50;;;7.50;;
67074;SDS011;53990;50.334;18.640;2023-02-26T08:31:53;23.40;;;12.70;;
67074;SDS011;53990;50.334;18.640;2023-02-26T08:34:20;11.20;;;6.40;;
67074;SDS011;53990;50.334;18.640;2023-02-26T08:36:48;13.80;;;8.50;;
67074;SDS011;53990;50.334;18.640;2023-02-26T08:39:16;12.10;;;7.90;;
67074;SDS011;53990;50.334;18.640;2023-02-26T08:41:43;8.60;;;5.50;;
67074;SDS011;53990;50.334;18.640;2023-02-26T08:44:11;8.90;;;5.20;;
67074;SDS011;53990;50.334;18.640;2023-02-26T08:46:38;9.60;;;5.70;;
67074;SDS011;53990;50.334;18.640;2023-02-26T08:49:05;14.00;;;7.10;;
67074;SDS011;53990;50.334;18.640;2023-02-26T08:51:33;9.80;;;5.40;;
67074;SDS011;53990;50.334;18.640;2023-02-26T08:54:04;10.00;;;5.60;;
67074;SDS011;53990;50.334;18.640;2023-02-26T08:56:41;8.70;;;5.20;;
67074;SDS011;53990;50.334;18.640;2023-02-26T08:59:08;5.10;;;3.50;;
67074;SDS011;53990;50.334;18.640;2023-02-26T09:01:38;10.70;;;5.00;;
67074;SDS011;53990;50.334;18.640;2023-02-26T09:04:06;8.00;;;4.20;;
67074;SDS011;53990;50.334;18.640;2023-02-26T09:06:34;6.60;;;3.80;;
67074;SDS011;53990;50.334;18.640;2023-02-26T09:09:02;5.80;;;3.00;;
67074;SDS011;53990;50.334;18.640;2023-02-26T09:11:30;4.80;;;3.20;;
67074;SDS011;53990;50.334;18.640;2023-02-26T09:13:58;7.30;;;3.80;;
67074;SDS011;53990;50.334;18.640;2023-02-26T09:16:26;7.40;;;4.00;;
67074;SDS011;53990;50.334;18.640;2023-02-26T09:18:56;6.40;;;4.20;;
67074;SDS011;53990;50.334;18.640;2023-02-26T09:21:27;7.00;;;3.80;;
67074;SDS011;53990;50.334;18.640;2023-02-26T09:23:55;5.80;;;3.70;;
67074;SDS011;53990;50.334;18.640;2023-02-26T09:26:23;6.50;;;3.40;;
67074;SDS011;53990;50.334;18.640;2023-02-26T09:28:50;7.30;;;3.70;;
67074;SDS011;53990;50.334;18.640;2023-02-26T09:31:18;5.30;;;3.90;;
67074;SDS011;53990;50.334;18.640;2023-02-26T09:33:45;6.80;;;3.80;;
67074;SDS011;53990;50.334;18.640;2023-02-26T09:36:13;5.40;;;3.90;;
67074;SDS011;53990;50.334;18.640;2023-02-26T09:38:41;11.70;;;5.90;;
67074;SDS011;53990;50.334;18.640;2023-02-26T09:41:19;7.30;;;4.00;;
67074;SDS011;53990;50.334;18.640;2023-02-26T09:44:05;6.20;;;3.80;;
67074;SDS011;53990;50.334;18.640;2023-02-26T09:46:45;5.90;;;3.60;;
67074;SDS011;53990;50.334;18.640;2023-02-26T09:49:52;8.50;;;4.20;;
67074;SDS011;53990;50.334;18.640;2023-02-26T09:52:28;6.50;;;4.40;;
67074;SDS011;53990;50.334;18.640;2023-02-26T09:57:53;13.50;;;7.90;;
67074;SDS011;53990;50.334;18.640;2023-02-26T10:00:45;15.40;;;8.50;;
67074;SDS011;53990;50.334;18.640;2023-02-26T10:03:24;15.70;;;8.50;;
67074;SDS011;53990;50.334;18.640;2023-02-26T10:06:14;8.80;;;5.20;;
67074;SDS011;53990;50.334;18.640;2023-02-26T10:09:18;8.00;;;4.40;;
67074;SDS011;53990;50.334;18.640;2023-02-26T10:11:56;7.80;;;5.20;;
67074;SDS011;53990;50.334;18.640;2023-02-26T10:15:00;10.40;;;5.40;;
67074;SDS011;53990;50.334;18.640;2023-02-26T10:20:22;16.50;;;8.40;;
67074;SDS011;53990;50.334;18.640;2023-02-26T10:23:00;23.00;;;10.30;;
67074;SDS011;53990;50.334;18.640;2023-02-26T10:25:52;15.50;;;8.40;;
67074;SDS011;53990;50.334;18.640;2023-02-26T10:31:37;21.30;;;9.70;;
67074;SDS011;53990;50.334;18.640;2023-02-26T10:34:31;17.20;;;9.00;;
67074;SDS011;53990;50.334;18.640;2023-02-26T10:42:24;27.60;;;11.00;;
67074;SDS011;53990;50.334;18.640;2023-02-26T10:47:55;12.10;;;6.30;;
67074;SDS011;53990;50.334;18.640;2023-02-26T10:50:25;12.30;;;6.10;;
67074;SDS011;53990;50.334;18.640;2023-02-26T10:52:54;12.30;;;6.30;;
67074;SDS011;53990;50.334;18.640;2023-02-26T10:55:40;10.40;;;6.00;;
67074;SDS011;53990;50.334;18.640;2023-02-26T10:58:18;10.40;;;5.60;;
67074;SDS011;53990;50.334;18.640;2023-02-26T11:00:49;15.50;;;8.30;;
67074;SDS011;53990;50.334;18.640;2023-02-26T11:03:31;14.40;;;6.90;;
67074;SDS011;53990;50.334;18.640;2023-02-26T11:06:01;8.70;;;5.00;;
67074;SDS011;53990;50.334;18.640;2023-02-26T11:11:01;10.30;;;5.10;;
67074;SDS011;53990;50.334;18.640;2023-02-26T11:13:31;8.40;;;4.10;;
67074;SDS011;53990;50.334;18.640;2023-02-26T11:16:07;10.90;;;5.20;;
67074;SDS011;53990;50.334;18.640;2023-02-26T11:18:40;7.80;;;4.50;;
67074;SDS011;53990;50.334;18.640;2023-02-26T11:21:37;7.80;;;3.80;;
67074;SDS011;53990;50.334;18.640;2023-02-26T11:24:10;6.20;;;3.90;;
67074;SDS011;53990;50.334;18.640;2023-02-26T11:26:43;4.70;;;2.60;;
67074;SDS011;53990;50.334;18.640;2023-02-26T11:29:18;5.80;;;3.30;;
67074;SDS011;53990;50.334;18.640;2023-02-26T11:31:53;4.70;;;2.80;;
67074;SDS011;53990;50.334;18.640;2023-02-26T11:34:24;12.20;;;7.20;;
67074;SDS011;53990;50.334;18.640;2023-02-26T11:36:56;14.00;;;7.50;;
67074;SDS011;53990;50.334;18.640;2023-02-26T11:39:36;10.20;;;5.50;;
67074;SDS011;53990;50.334;18.640;2023-02-26T11:42:04;8.60;;;3.60;;
67074;SDS011;53990;50.334;18.640;2023-02-26T11:44:42;8.10;;;3.70;;
67074;SDS011;53990;50.334;18.640;2023-02-26T11:47:13;6.80;;;4.00;;
67074;SDS011;53990;50.334;18.640;2023-02-26T11:49:49;6.00;;;4.10;;
67074;SDS011;53990;50.334;18.640;2023-02-26T11:52:32;5.70;;;3.60;;
67074;SDS011;53990;50.334;18.640;2023-02-26T11:55:03;7.50;;;4.20;;
67074;SDS011;53990;50.334;18.640;2023-02-26T11:57:32;5.80;;;3.40;;
67074;SDS011;53990;50.334;18.640;2023-02-26T12:00:00;9.30;;;4.60;;
67074;SDS011;53990;50.334;18.640;2023-02-26T12:02:43;7.10;;;4.40;;
67074;SDS011;53990;50.334;18.640;2023-02-26T12:05:14;8.20;;;4.40;;
67074;SDS011;53990;50.334;18.640;2023-02-26T12:07:43;8.30;;;5.10;;
67074;SDS011;53990;50.334;18.640;2023-02-26T12:10:16;9.90;;;5.70;;
67074;SDS011;53990;50.334;18.640;2023-02-26T12:15:30;8.60;;;4.50;;
67074;SDS011;53990;50.334;18.640;2023-02-26T12:23:54;6.40;;;4.40;;
67074;SDS011;53990;50.334;18.640;2023-02-26T12:26:38;9.40;;;5.20;;
67074;SDS011;53990;50.334;18.640;2023-02-26T12:29:35;8.10;;;5.00;;
67074;SDS011;53990;50.334;18.640;2023-02-26T12:35:25;11.50;;;6.20;;
67074;SDS011;53990;50.334;18.640;2023-02-26T12:43:39;10.60;;;6.50;;
67074;SDS011;53990;50.334;18.640;2023-02-26T13:27:03;11.90;;;6.30;;
67074;SDS011;53990;50.334;18.640;2023-02-26T13:29:47;10.10;;;5.50;;
67074;SDS011;53990;50.334;18.640;2023-02-26T13:33:14;9.20;;;4.80;;
67074;SDS011;53990;50.334;18.640;2023-02-26T13:36:12;8.60;;;4.20;;
67074;SDS011;53990;50.334;18.640;2023-02-26T13:39:34;9.00;;;4.40;;
67074;SDS011;53990;50.334;18.640;2023-02-26T13:45:31;8.10;;;4.30;;
67074;SDS011;53990;50.334;18.640;2023-02-26T13:51:35;8.50;;;4.70;;
67074;SDS011;53990;50.334;18.640;2023-02-26T13:54:42;8.80;;;4.60;;
67074;SDS011;53990;50.334;18.640;2023-02-26T14:05:32;12.40;;;7.00;;
67074;SDS011;53990;50.334;18.640;2023-02-26T14:23:46;7.40;;;4.50;;
67074;SDS011;53990;50.334;18.640;2023-02-26T14:37:30;9.00;;;5.40;;
67074;SDS011;53990;50.334;18.640;2023-02-26T14:40:42;7.10;;;4.30;;
67074;SDS011;53990;50.334;18.640;2023-02-26T14:43:44;6.50;;;4.20;;
67074;SDS011;53990;50.334;18.640;2023-02-26T14:46:15;7.50;;;4.30;;
67074;SDS011;53990;50.334;18.640;2023-02-26T14:48:45;7.40;;;4.30;;
67074;SDS011;53990;50.334;18.640;2023-02-26T15:09:14;9.00;;;4.70;;
67074;SDS011;53990;50.334;18.640;2023-02-26T15:20:41;9.00;;;4.50;;
67074;SDS011;53990;50.334;18.640;2023-02-26T15:26:48;7.30;;;4.20;;
67074;SDS011;53990;50.334;18.640;2023-02-26T15:29:36;10.10;;;5.20;;
67074;SDS011;53990;50.334;18.640;2023-02-26T15:33:47;11.40;;;5.10;;
67074;SDS011;53990;50.334;18.640;2023-02-26T15:37:04;9.20;;;4.90;;
67074;SDS011;53990;50.334;18.640;2023-02-26T15:39:59;9.70;;;5.10;;
67074;SDS011;53990;50.334;18.640;2023-02-26T15:42:56;12.60;;;6.50;;
67074;SDS011;53990;50.334;18.640;2023-02-26T15:45:45;14.50;;;7.30;;
67074;SDS011;53990;50.334;18.640;2023-02-26T15:48:58;12.70;;;6.30;;
67074;SDS011;53990;50.334;18.640;2023-02-26T15:52:26;10.40;;;5.20;;
67074;SDS011;53990;50.334;18.640;2023-02-26T15:59:25;9.30;;;5.10;;
67074;SDS011;53990;50.334;18.640;2023-02-26T16:02:29;10.70;;;6.50;;
67074;SDS011;53990;50.334;18.640;2023-02-26T16:05:13;13.00;;;7.00;;
67074;SDS011;53990;50.334;18.640;2023-02-26T16:07:46;17.10;;;8.10;;
67074;SDS011;53990;50.334;18.640;2023-02-26T16:10:32;15.20;;;7.90;;
67074;SDS011;53990;50.334;18.640;2023-02-26T16:13:01;14.60;;;7.50;;
67074;SDS011;53990;50.334;18.640;2023-02-26T16:15:40;14.30;;;7.70;;
67074;SDS011;53990;50.334;18.640;2023-02-26T16:18:15;13.80;;;7.60;;
67074;SDS011;53990;50.334;18.640;2023-02-26T16:20:51;11.00;;;6.40;;
67074;SDS011;53990;50.334;18.640;2023-02-26T16:23:31;10.70;;;5.80;;
67074;SDS011;53990;50.334;18.640;2023-02-26T16:26:19;20.60;;;9.30;;
67074;SDS011;53990;50.334;18.640;2023-02-26T16:28:58;18.90;;;7.80;;
67074;SDS011;53990;50.334;18.640;2023-02-26T16:31:45;15.30;;;7.70;;
67074;SDS011;53990;50.334;18.640;2023-02-26T16:34:43;12.90;;;7.50;;
67074;SDS011;53990;50.334;18.640;2023-02-26T16:45:45;11.40;;;7.00;;
67074;SDS011;53990;50.334;18.640;2023-02-26T17:07:30;15.60;;;10.40;;
67074;SDS011;53990;50.334;18.640;2023-02-26T17:12:54;15.50;;;9.00;;
67074;SDS011;53990;50.334;18.640;2023-02-26T17:15:36;14.20;;;8.60;;
67074;SDS011;53990;50.334;18.640;2023-02-26T17:18:12;13.10;;;8.50;;
67074;SDS011;53990;50.334;18.640;2023-02-26T17:23:29;14.30;;;8.40;;
67074;SDS011;53990;50.334;18.640;2023-02-26T17:26:05;12.90;;;8.00;;
67074;SDS011;53990;50.334;18.640;2023-02-26T17:28:59;14.10;;;7.80;;
67074;SDS011;53990;50.334;18.640;2023-02-26T17:31:27;15.50;;;8.60;;
67074;SDS011;53990;50.334;18.640;2023-02-26T17:34:19;16.40;;;9.60;;
67074;SDS011;53990;50.334;18.640;2023-02-26T17:36:53;22.80;;;15.20;;
67074;SDS011;53990;50.334;18.640;2023-02-26T17:39:51;46.10;;;26.80;;
67074;SDS011;53990;50.334;18.640;2023-02-26T17:42:21;48.30;;;27.90;;
67074;SDS011;53990;50.334;18.640;2023-02-26T17:44:49;35.20;;;20.10;;
67074;SDS011;53990;50.334;18.640;2023-02-26T17:47:20;30.40;;;16.50;;
67074;SDS011;53990;50.334;18.640;2023-02-26T17:49:53;23.70;;;13.70;;
67074;SDS011;53990;50.334;18.640;2023-02-26T17:52:32;25.10;;;13.40;;
67074;SDS011;53990;50.334;18.640;2023-02-26T17:55:22;16.80;;;9.90;;
67074;SDS011;53990;50.334;18.640;2023-02-26T17:57:59;17.00;;;9.70;;
67074;SDS011;53990;50.334;18.640;2023-02-26T18:00:27;22.00;;;11.20;;
67074;SDS011;53990;50.334;18.640;2023-02-26T18:02:58;36.80;;;18.90;;
67074;SDS011;53990;50.334;18.640;2023-02-26T18:05:25;31.20;;;17.50;;
67074;SDS011;53990;50.334;18.640;2023-02-26T18:07:53;22.50;;;13.40;;
67074;SDS011;53990;50.334;18.640;2023-02-26T18:10:23;23.70;;;13.20;;
67074;SDS011;53990;50.334;18.640;2023-02-26T18:12:50;15.90;;;9.60;;
67074;SDS011;53990;50.334;18.640;2023-02-26T18:15:18;17.50;;;10.70;;
67074;SDS011;53990;50.334;18.640;2023-02-26T18:18:07;25.90;;;14.30;;
67074;SDS011;53990;50.334;18.640;2023-02-26T18:21:01;31.30;;;16.80;;
67074;SDS011;53990;50.334;18.640;2023-02-26T18:23:32;34.20;;;19.10;;
67074;SDS011;53990;50.334;18.640;2023-02-26T18:26:00;34.90;;;19.90;;
67074;SDS011;53990;50.334;18.640;2023-02-26T18:28:29;39.00;;;22.40;;
67074;SDS011;53990;50.334;18.640;2023-02-26T18:30:56;37.00;;;20.80;;
67074;SDS011;53990;50.334;18.640;2023-02-26T18:33:35;46.90;;;25.30;;
67074;SDS011;53990;50.334;18.640;2023-02-26T18:36:05;118.80;;;43.80;;
67074;SDS011;53990;50.334;18.640;2023-02-26T18:38:33;130.50;;;49.70;;
67074;SDS011;53990;50.334;18.640;2023-02-26T18:41:01;86.70;;;36.90;;
67074;SDS011;53990;50.334;18.640;2023-02-26T18:43:28;53.30;;;25.80;;
67074;SDS011;53990;50.334;18.640;2023-02-26T18:45:56;45.10;;;24.30;;
67074;SDS011;53990;50.334;18.640;2023-02-26T18:48:27;40.60;;;21.70;;
67074;SDS011;53990;50.334;18.640;2023-02-26T18:51:03;38.70;;;21.50;;
67074;SDS011;53990;50.334;18.640;2023-02-26T18:53:34;32.50;;;19.80;;
67074;SDS011;53990;50.334;18.640;2023-02-26T18:56:02;33.30;;;18.60;;
67074;SDS011;53990;50.334;18.640;2023-02-26T18:58:30;31.80;;;18.60;;
67074;SDS011;53990;50.334;18.640;2023-02-26T19:00:57;29.00;;;17.80;;
67074;SDS011;53990;50.334;18.640;2023-02-26T19:03:28;34.70;;;20.30;;
67074;SDS011;53990;50.334;18.640;2023-02-26T19:05:59;33.20;;;19.00;;
67074;SDS011;53990;50.334;18.640;2023-02-26T19:19:16;25.80;;;13.40;;
67074;SDS011;53990;50.334;18.640;2023-02-26T19:21:43;27.50;;;15.10;;
67074;SDS011;53990;50.334;18.640;2023-02-26T19:24:11;26.60;;;13.50;;
67074;SDS011;53990;50.334;18.640;2023-02-26T19:26:39;27.30;;;13.10;;
67074;SDS011;53990;50.334;18.640;2023-02-26T19:29:09;25.70;;;14.60;;
67074;SDS011;53990;50.334;18.640;2023-02-26T19:31:36;28.80;;;15.30;;
67074;SDS011;53990;50.334;18.640;2023-02-26T19:34:03;28.40;;;15.50;;
67074;SDS011;53990;50.334;18.640;2023-02-26T19:36:30;32.90;;;16.30;;
67074;SDS011;53990;50.334;18.640;2023-02-26T19:39:00;30.90;;;17.80;;
67074;SDS011;53990;50.334;18.640;2023-02-26T19:41:27;32.90;;;16.60;;
67074;SDS011;53990;50.334;18.640;2023-02-26T19:43:55;32.00;;;18.20;;
67074;SDS011;53990;50.334;18.640;2023-02-26T19:46:22;30.20;;;16.90;;
67074;SDS011;53990;50.334;18.640;2023-02-26T19:48:49;28.10;;;15.90;;
67074;SDS011;53990;50.334;18.640;2023-02-26T19:51:16;23.50;;;12.60;;
67074;SDS011;53990;50.334;18.640;2023-02-26T19:53:44;23.70;;;13.50;;
67074;SDS011;53990;50.334;18.640;2023-02-26T19:56:10;21.20;;;12.60;;
67074;SDS011;53990;50.334;18.640;2023-02-26T19:59:07;26.80;;;14.00;;
67074;SDS011;53990;50.334;18.640;2023-02-26T20:06:02;27.60;;;14.20;;
67074;SDS011;53990;50.334;18.640;2023-02-26T20:12:29;42.40;;;26.30;;
67074;SDS011;53990;50.334;18.640;2023-02-26T20:14:57;39.00;;;22.80;;